Time;durP1;ratioP1;P1;durP2;ratioP2;P2;SDS_P1;SDS_P2;PMS_P1;PMS_P2;Temp;Humidity;BMP_temperature;BMP_pressure;BME280_temperature;BME280_humidity;BME280_pressure;Samples;Min_cycle;Max_cycle;Signal;HPM_P1;HPM_P2
2024/04/14 00:01:56;;;;;;;6.80;2.13;;;;;;;;;;5360918;26;20342;-82
2024/04/14 00:04:22;;;;;;;4.60;1.70;;;;;;;;;;5363059;26;20009;-82
2024/04/14 00:06:47;;;;;;;6.72;2.10;;;;;;;;;;5342261;26;20004;-84
2024/04/14 00:09:13;;;;;;;5.68;2.50;;;;;;;;;;5369896;26;20001;-82
2024/04/14 00:11:39;;;;;;;8.02;2.25;;;;;;;;;;5357188;26;20023;-82
2024/04/14 00:14:04;;;;;;;6.38;2.40;;;;;;;;;;5342878;26;20438;-84
2024/04/14 00:16:29;;;;;;;6.00;2.40;;;;;;;;;;5354847;26;20373;-81
2024/04/14 00:18:55;;;;;;;5.13;2.10;;;;;;;;;;5338243;26;20004;-82
2024/04/14 00:21:22;;;;;;;6.03;2.65;;;;;;;;;;5343539;26;20010;-82
2024/04/14 00:23:48;;;;;;;6.22;2.40;;;;;;;;;;5339218;26;19996;-83
2024/04/14 00:26:13;;;;;;;6.05;2.00;;;;;;;;;;5361703;26;20074;-82
2024/04/14 00:28:39;;;;;;;7.68;2.80;;;;;;;;;;5340647;26;20020;-83
2024/04/14 00:31:05;;;;;;;6.88;2.42;;;;;;;;;;5340677;26;20004;-83
2024/04/14 00:33:31;;;;;;;8.45;2.45;;;;;;;;;;5353742;26;20548;-83
2024/04/14 00:35:56;;;;;;;6.68;2.40;;;;;;;;;;5336455;26;20037;-83
2024/04/14 00:38:22;;;;;;;6.60;2.40;;;;;;;;;;5334530;26;20343;-84
2024/04/14 00:40:47;;;;;;;7.70;2.72;;;;;;;;;;5343541;26;20015;-81
2024/04/14 00:43:15;;;;;;;12.38;2.58;;;;;;;;;;5338367;26;19996;-83
2024/04/14 00:45:43;;;;;;;7.32;2.53;;;;;;;;;;5339248;26;20004;-82
2024/04/14 00:48:08;;;;;;;6.28;2.60;;;;;;;;;;5337172;26;20004;-84
2024/04/14 00:50:34;;;;;;;8.23;3.28;;;;;;;;;;5339719;26;20081;-84
2024/04/14 00:53:00;;;;;;;7.90;2.88;;;;;;;;;;5356182;26;20000;-82
2024/04/14 00:55:26;;;;;;;8.27;2.88;;;;;;;;;;5361386;26;20591;-84
2024/04/14 00:57:52;;;;;;;7.93;2.58;;;;;;;;;;5335297;26;20001;-81
2024/04/14 01:00:18;;;;;;;7.22;2.78;;;;;;;;;;5357763;26;20011;-84
2024/04/14 01:02:43;;;;;;;7.68;3.03;;;;;;;;;;5363947;26;20452;-82
2024/04/14 01:05:09;;;;;;;8.95;2.75;;;;;;;;;;5362465;26;20025;-82
2024/04/14 01:07:35;;;;;;;8.20;2.85;;;;;;;;;;5372478;26;20076;-83
2024/04/14 01:10:00;;;;;;;7.38;2.80;;;;;;;;;;5346127;26;20000;-81
2024/04/14 01:12:26;;;;;;;7.50;3.30;;;;;;;;;;5333892;26;20519;-82
2024/04/14 01:14:51;;;;;;;7.88;3.20;;;;;;;;;;5339422;26;20004;-82
2024/04/14 01:17:17;;;;;;;12.00;3.00;;;;;;;;;;5333523;26;20000;-83
2024/04/14 01:19:43;;;;;;;10.02;2.85;;;;;;;;;;5365650;26;20011;-84
2024/04/14 01:22:09;;;;;;;7.28;2.55;;;;;;;;;;5339055;26;20377;-84
2024/04/14 01:24:34;;;;;;;9.20;2.92;;;;;;;;;;5358426;26;20078;-84
2024/04/14 01:26:59;;;;;;;7.70;2.85;;;;;;;;;;5340754;26;20373;-83
2024/04/14 01:29:25;;;;;;;9.85;2.95;;;;;;;;;;5342637;26;20000;-83
2024/04/14 01:31:51;;;;;;;8.88;2.53;;;;;;;;;;5363783;26;20009;-83
2024/04/14 01:34:17;;;;;;;8.73;2.92;;;;;;;;;;5334972;26;20024;-84
2024/04/14 01:36:43;;;;;;;8.00;2.88;;;;;;;;;;5339505;26;20012;-83
2024/04/14 01:39:10;;;;;;;7.50;2.80;;;;;;;;;;5340620;26;20629;-84
2024/04/14 01:41:35;;;;;;;9.40;3.42;;;;;;;;;;5358356;26;20000;-84
2024/04/14 01:44:01;;;;;;;10.38;3.20;;;;;;;;;;5361078;26;19996;-84
2024/04/14 01:46:26;;;;;;;11.13;3.33;;;;;;;;;;5337538;26;20011;-84
2024/04/14 01:48:51;;;;;;;9.13;3.20;;;;;;;;;;5361894;26;20008;-81
2024/04/14 01:51:17;;;;;;;7.70;3.10;;;;;;;;;;5339419;26;20555;-84
2024/04/14 01:53:42;;;;;;;9.70;3.22;;;;;;;;;;5338664;26;20006;-83
2024/04/14 01:56:08;;;;;;;8.57;2.85;;;;;;;;;;5354909;26;20068;-83
2024/04/14 01:58:33;;;;;;;9.48;3.13;;;;;;;;;;5341255;26;19996;-84
2024/04/14 02:00:59;;;;;;;7.82;2.90;;;;;;;;;;5350847;26;20004;-83
2024/04/14 02:03:24;;;;;;;7.40;3.13;;;;;;;;;;5352581;26;20001;-83
2024/04/14 02:05:59;;;;;;;10.25;2.80;;;;;;;;;;5339185;26;20077;-82
2024/04/14 02:08:25;;;;;;;10.23;2.90;;;;;;;;;;5355591;26;20000;-82
2024/04/14 02:10:50;;;;;;;8.35;2.90;;;;;;;;;;5368340;26;20004;-82
2024/04/14 02:13:16;;;;;;;7.03;3.13;;;;;;;;;;5357148;26;20008;-90
2024/04/14 02:15:41;;;;;;;7.53;3.03;;;;;;;;;;5363968;26;20000;-88
2024/04/14 02:18:07;;;;;;;8.35;3.00;;;;;;;;;;5365496;26;20012;-87
2024/04/14 02:20:32;;;;;;;8.00;2.90;;;;;;;;;;5342191;26;19997;-88
2024/04/14 02:22:58;;;;;;;5.82;2.40;;;;;;;;;;5356711;26;20004;-88
2024/04/14 02:25:23;;;;;;;5.97;2.33;;;;;;;;;;5342524;26;19996;-88
2024/04/14 02:27:49;;;;;;;7.82;2.08;;;;;;;;;;5362048;26;20004;-88
2024/04/14 02:30:14;;;;;;;5.80;1.80;;;;;;;;;;5360640;26;20045;-88
2024/04/14 02:32:40;;;;;;;8.20;1.77;;;;;;;;;;5358671;26;20347;-88
2024/04/14 02:35:06;;;;;;;8.40;1.90;;;;;;;;;;5365162;26;20363;-88
2024/04/14 02:37:32;;;;;;;6.65;1.48;;;;;;;;;;5356945;26;20012;-88
2024/04/14 02:39:58;;;;;;;6.38;1.55;;;;;;;;;;5338691;26;19996;-88
2024/04/14 02:42:23;;;;;;;6.72;1.95;;;;;;;;;;5341440;26;20001;-87
2024/04/14 02:44:48;;;;;;;7.47;2.00;;;;;;;;;;5334919;26;20011;-89
2024/04/14 02:47:14;;;;;;;6.50;1.80;;;;;;;;;;5336188;26;20012;-90
2024/04/14 02:49:39;;;;;;;8.18;1.77;;;;;;;;;;5362405;26;20001;-87
2024/04/14 02:52:06;;;;;;;4.38;1.40;;;;;;;;;;5362576;26;20375;-87
2024/04/14 02:54:31;;;;;;;5.95;1.42;;;;;;;;;;5366113;26;20485;-88
2024/04/14 02:56:57;;;;;;;7.25;1.92;;;;;;;;;;5360696;26;20000;-86
2024/04/14 02:59:22;;;;;;;6.95;1.80;;;;;;;;;;5334288;26;20080;-88
2024/04/14 03:01:48;;;;;;;4.53;1.42;;;;;;;;;;5356688;26;20007;-89
2024/04/14 03:04:13;;;;;;;4.68;1.40;;;;;;;;;;5336562;26;20004;-88
2024/04/14 03:06:38;;;;;;;10.25;1.70;;;;;;;;;;5365305;26;20008;-88
2024/04/14 03:09:04;;;;;;;4.70;1.65;;;;;;;;;;5330718;26;20004;-89
2024/04/14 03:11:30;;;;;;;5.72;1.30;;;;;;;;;;5341071;26;20015;-89
2024/04/14 03:13:55;;;;;;;4.63;1.42;;;;;;;;;;5339590;26;20027;-88
2024/04/14 03:16:20;;;;;;;5.78;1.65;;;;;;;;;;5343854;26;20081;-87
2024/04/14 03:18:47;;;;;;;7.07;1.40;;;;;;;;;;5366334;26;20000;-87
2024/04/14 03:21:13;;;;;;;8.07;1.40;;;;;;;;;;5343241;26;20019;-87
2024/04/14 03:23:39;;;;;;;6.40;1.30;;;;;;;;;;5342178;26;20338;-82
2024/04/14 03:26:05;;;;;;;6.60;1.40;;;;;;;;;;5343136;26;20036;-82
2024/04/14 03:28:31;;;;;;;6.22;1.40;;;;;;;;;;5341086;26;20004;-83
2024/04/14 03:31:01;;;;;;;4.43;1.38;;;;;;;;;;5341107;26;20104;-83
2024/04/14 03:33:28;;;;;;;7.25;1.45;;;;;;;;;;5366816;26;20451;-82
2024/04/14 03:36:06;;;;;;;5.35;1.50;;;;;;;;;;5361292;26;20001;-82
2024/04/14 03:38:33;;;;;;;6.93;1.42;;;;;;;;;;5337085;26;20030;-83
2024/04/14 03:40:59;;;;;;;4.28;1.10;;;;;;;;;;5339876;26;20343;-83
2024/04/14 03:43:24;;;;;;;12.20;1.63;;;;;;;;;;5344869;26;20004;-83
2024/04/14 03:45:50;;;;;;;6.40;1.73;;;;;;;;;;5346063;26;20004;-83
2024/04/14 03:48:15;;;;;;;10.65;1.92;;;;;;;;;;5337031;26;20043;-82
2024/04/14 03:50:41;;;;;;;6.45;1.38;;;;;;;;;;5343152;26;20012;-83
2024/04/14 03:53:06;;;;;;;5.85;1.48;;;;;;;;;;5338736;26;19996;-82
2024/04/14 03:55:32;;;;;;;7.93;1.55;;;;;;;;;;5338663;26;20000;-82
2024/04/14 03:57:58;;;;;;;5.25;1.15;;;;;;;;;;5335779;26;20076;-82
2024/04/14 04:00:24;;;;;;;7.15;1.60;;;;;;;;;;5355616;26;20005;-83
2024/04/14 04:02:50;;;;;;;7.63;1.20;;;;;;;;;;5359553;26;20027;-82
2024/04/14 04:05:15;;;;;;;3.88;1.02;;;;;;;;;;5340739;26;20047;-82
2024/04/14 04:07:41;;;;;;;8.65;1.48;;;;;;;;;;5338717;26;20003;-82
2024/04/14 04:10:06;;;;;;;6.03;1.10;;;;;;;;;;5339176;26;20359;-82
2024/04/14 04:12:31;;;;;;;6.95;1.45;;;;;;;;;;5368317;26;20011;-82
2024/04/14 04:14:57;;;;;;;8.63;1.27;;;;;;;;;;5359688;26;20004;-82
2024/04/14 04:17:23;;;;;;;7.15;1.35;;;;;;;;;;5340274;26;20008;-82
2024/04/14 04:19:48;;;;;;;7.30;1.35;;;;;;;;;;5338510;26;19993;-82
2024/04/14 04:22:14;;;;;;;5.25;1.17;;;;;;;;;;5354238;26;19997;-82
2024/04/14 04:24:39;;;;;;;8.52;1.33;;;;;;;;;;5341526;26;20014;-82
2024/04/14 04:27:04;;;;;;;5.53;1.15;;;;;;;;;;5357964;26;20485;-82
2024/04/14 04:29:30;;;;;;;5.47;1.30;;;;;;;;;;5364430;26;20012;-82
2024/04/14 04:31:56;;;;;;;8.80;1.38;;;;;;;;;;5342884;26;20011;-83
2024/04/14 04:34:22;;;;;;;7.95;1.80;;;;;;;;;;5360358;26;20005;-87
2024/04/14 04:36:50;;;;;;;4.80;1.08;;;;;;;;;;5374921;26;20019;-87
2024/04/14 04:39:18;;;;;;;3.10;1.00;;;;;;;;;;5364220;26;20008;-88
2024/04/14 04:41:43;;;;;;;3.90;1.20;;;;;;;;;;5332005;26;20015;-87
2024/04/14 04:44:10;;;;;;;6.63;1.50;;;;;;;;;;5361008;26;20004;-87
2024/04/14 04:46:35;;;;;;;6.72;1.50;;;;;;;;;;5338544;26;19993;-87
2024/04/14 04:49:01;;;;;;;5.40;1.17;;;;;;;;;;5339768;26;20000;-87
2024/04/14 04:51:30;;;;;;;6.28;1.20;;;;;;;;;;5369510;26;20354;-88
2024/04/14 04:53:55;;;;;;;9.23;2.28;;;;;;;;;;5337430;26;20016;-88
2024/04/14 04:56:21;;;;;;;4.78;1.20;;;;;;;;;;5339504;26;20004;-88
2024/04/14 04:58:46;;;;;;;8.00;1.58;;;;;;;;;;5338284;26;20003;-87
2024/04/14 05:01:12;;;;;;;7.32;1.17;;;;;;;;;;5365752;26;20009;-87
2024/04/14 05:03:37;;;;;;;5.97;1.60;;;;;;;;;;5338602;26;20776;-87
2024/04/14 05:06:04;;;;;;;6.85;1.17;;;;;;;;;;5341521;26;20111;-88
2024/04/14 05:08:32;;;;;;;6.72;1.30;;;;;;;;;;5340782;26;20003;-87
2024/04/14 05:10:58;;;;;;;7.82;1.40;;;;;;;;;;5356203;26;20019;-89
2024/04/14 05:13:25;;;;;;;5.60;1.30;;;;;;;;;;5339251;26;20016;-87
2024/04/14 05:15:51;;;;;;;8.65;1.85;;;;;;;;;;5337750;26;20019;-88
2024/04/14 05:18:17;;;;;;;5.35;1.30;;;;;;;;;;5367748;26;20012;-88
2024/04/14 05:20:45;;;;;;;7.65;1.33;;;;;;;;;;5369062;26;20012;-87
2024/04/14 05:23:11;;;;;;;5.43;1.10;;;;;;;;;;5340494;26;20000;-89
2024/04/14 05:25:39;;;;;;;5.90;1.35;;;;;;;;;;5340187;26;20028;-88
2024/04/14 05:28:05;;;;;;;6.25;1.02;;;;;;;;;;5340152;26;20019;-86
2024/04/14 05:30:30;;;;;;;4.97;1.25;;;;;;;;;;5335724;26;20005;-89
2024/04/14 05:32:57;;;;;;;7.55;1.40;;;;;;;;;;5344906;26;20004;-88
2024/04/14 05:35:22;;;;;;;6.90;1.50;;;;;;;;;;5337591;26;20015;-87
2024/04/14 05:37:48;;;;;;;8.20;1.40;;;;;;;;;;5368791;26;20010;-87
2024/04/14 05:40:13;;;;;;;7.05;1.20;;;;;;;;;;5331652;26;20036;-87
2024/04/14 05:42:38;;;;;;;8.40;1.50;;;;;;;;;;5339547;26;20008;-82
2024/04/14 05:45:07;;;;;;;5.70;1.20;;;;;;;;;;5337461;26;20373;-82
2024/04/14 05:47:33;;;;;;;7.05;1.30;;;;;;;;;;5337994;26;20008;-82
2024/04/14 05:49:58;;;;;;;8.32;1.50;;;;;;;;;;5365881;26;20001;-82
2024/04/14 05:52:23;;;;;;;7.03;1.13;;;;;;;;;;5352134;26;20008;-82
2024/04/14 05:54:49;;;;;;;5.78;1.25;;;;;;;;;;5336806;26;20533;-82
2024/04/14 05:57:14;;;;;;;6.07;1.35;;;;;;;;;;5337231;26;20084;-83
2024/04/14 05:59:40;;;;;;;6.38;1.10;;;;;;;;;;5338244;26;20001;-83
2024/04/14 06:02:05;;;;;;;6.85;1.40;;;;;;;;;;5334955;26;20004;-82
2024/04/14 06:04:30;;;;;;;5.18;1.08;;;;;;;;;;5313572;26;20000;-89
2024/04/14 06:06:56;;;;;;;5.22;1.30;;;;;;;;;;5337580;26;20069;-88
2024/04/14 06:09:23;;;;;;;6.55;1.10;;;;;;;;;;5338380;26;19996;-88
2024/04/14 06:11:49;;;;;;;5.57;1.25;;;;;;;;;;5350327;26;20019;-87
2024/04/14 06:14:14;;;;;;;5.70;1.30;;;;;;;;;;5357603;26;20011;-87
2024/04/14 06:16:40;;;;;;;6.95;1.23;;;;;;;;;;5357249;26;20350;-87
2024/04/14 06:19:05;;;;;;;8.30;1.20;;;;;;;;;;5335367;26;20054;-89
2024/04/14 06:21:31;;;;;;;5.68;1.05;;;;;;;;;;5336532;26;20012;-86
2024/04/14 06:23:56;;;;;;;6.05;1.23;;;;;;;;;;5356209;26;20005;-87
2024/04/14 06:26:21;;;;;;;8.40;1.10;;;;;;;;;;5366204;26;20358;-86
2024/04/14 06:28:47;;;;;;;5.70;1.73;;;;;;;;;;5334963;26;20056;-87
2024/04/14 06:31:12;;;;;;;5.45;0.90;;;;;;;;;;5336375;26;20043;-87
2024/04/14 06:33:37;;;;;;;4.95;1.20;;;;;;;;;;5373288;26;20023;-89
2024/04/14 06:36:03;;;;;;;4.20;1.00;;;;;;;;;;5340963;26;20009;-87
2024/04/14 06:38:30;;;;;;;6.03;1.00;;;;;;;;;;5335395;26;20466;-87
2024/04/14 06:40:55;;;;;;;5.85;1.10;;;;;;;;;;5333317;26;20016;-88
2024/04/14 06:43:20;;;;;;;7.93;1.08;;;;;;;;;;5358402;26;20024;-86
2024/04/14 06:45:52;;;;;;;6.85;1.10;;;;;;;;;;5356456;26;20011;-88
2024/04/14 06:48:18;;;;;;;6.65;1.13;;;;;;;;;;5358174;26;20023;-86
2024/04/14 06:50:43;;;;;;;11.27;1.30;;;;;;;;;;5357851;26;20352;-87
2024/04/14 06:53:08;;;;;;;6.45;1.20;;;;;;;;;;5340477;26;20032;-87
2024/04/14 06:55:34;;;;;;;6.97;1.20;;;;;;;;;;5341149;26;20016;-87
2024/04/14 06:57:59;;;;;;;8.57;1.10;;;;;;;;;;5338762;26;20332;-87
2024/04/14 07:00:25;;;;;;;6.60;0.90;;;;;;;;;;5370488;26;20001;-86
2024/04/14 07:02:50;;;;;;;7.22;0.95;;;;;;;;;;5374508;26;20008;-86
2024/04/14 07:05:17;;;;;;;9.07;1.13;;;;;;;;;;5349882;26;20478;-87
2024/04/14 07:07:42;;;;;;;8.95;1.52;;;;;;;;;;5349778;26;20001;-86
2024/04/14 07:10:08;;;;;;;9.20;1.73;;;;;;;;;;5348195;26;20004;-87
2024/04/14 07:12:34;;;;;;;5.57;0.95;;;;;;;;;;5348425;26;20446;-86
2024/04/14 07:15:00;;;;;;;6.35;1.48;;;;;;;;;;5349763;26;20015;-87
2024/04/14 07:17:25;;;;;;;6.88;1.00;;;;;;;;;;5351696;26;20000;-88
2024/04/14 07:19:50;;;;;;;6.53;1.08;;;;;;;;;;5350381;26;20023;-87
2024/04/14 07:22:16;;;;;;;5.90;0.90;;;;;;;;;;5382833;26;20011;-86
2024/04/14 07:24:41;;;;;;;3.78;1.02;;;;;;;;;;5381451;26;20446;-87
2024/04/14 07:27:07;;;;;;;5.95;0.95;;;;;;;;;;5381151;26;20008;-87
2024/04/14 07:29:33;;;;;;;5.25;1.00;;;;;;;;;;5355931;26;20016;-87
2024/04/14 07:31:58;;;;;;;9.35;1.98;;;;;;;;;;5349440;26;20536;-86
2024/04/14 07:34:23;;;;;;;6.65;1.38;;;;;;;;;;5350227;26;20051;-86
2024/04/14 07:36:49;;;;;;;4.75;1.33;;;;;;;;;;5381765;26;20011;-87
2024/04/14 07:39:14;;;;;;;7.40;1.08;;;;;;;;;;5381205;26;20001;-85
2024/04/14 07:41:41;;;;;;;6.47;1.05;;;;;;;;;;5350031;26;19996;-86
2024/04/14 07:44:07;;;;;;;6.18;1.05;;;;;;;;;;5381593;26;20041;-85
2024/04/14 07:46:32;;;;;;;5.00;1.13;;;;;;;;;;5380900;26;20001;-87
2024/04/14 07:48:58;;;;;;;4.75;0.80;;;;;;;;;;5351467;26;20014;-87
2024/04/14 07:51:23;;;;;;;3.47;1.00;;;;;;;;;;5381952;26;20433;-85
2024/04/14 07:53:48;;;;;;;4.68;0.98;;;;;;;;;;5351571;26;20000;-87
2024/04/14 07:56:14;;;;;;;4.63;1.25;;;;;;;;;;5349232;26;20008;-84
2024/04/14 07:58:39;;;;;;;3.92;0.90;;;;;;;;;;5382131;26;20004;-87
2024/04/14 08:01:04;;;;;;;3.85;0.70;;;;;;;;;;5349202;26;20004;-85
2024/04/14 08:03:30;;;;;;;4.32;1.75;;;;;;;;;;5382043;26;20046;-87
2024/04/14 08:05:56;;;;;;;4.75;1.10;;;;;;;;;;5348287;26;20005;-86
2024/04/14 08:08:21;;;;;;;3.72;0.82;;;;;;;;;;5380046;26;20572;-86
2024/04/14 08:10:47;;;;;;;6.40;0.93;;;;;;;;;;5359208;26;20077;-84
2024/04/14 08:13:12;;;;;;;6.88;0.98;;;;;;;;;;5377980;26;20916;-87
2024/04/14 08:15:38;;;;;;;3.90;1.40;;;;;;;;;;5349427;26;20015;-88
2024/04/14 08:18:03;;;;;;;6.05;0.85;;;;;;;;;;5374438;26;20000;-88
2024/04/14 08:20:28;;;;;;;7.18;0.90;;;;;;;;;;5350843;26;20012;-85
2024/04/14 08:22:54;;;;;;;5.63;0.90;;;;;;;;;;5346450;26;20412;-85
2024/04/14 08:25:20;;;;;;;6.35;1.00;;;;;;;;;;5348874;26;20505;-82
2024/04/14 08:27:45;;;;;;;4.45;0.90;;;;;;;;;;5347545;26;20005;-83
2024/04/14 08:30:11;;;;;;;5.50;1.08;;;;;;;;;;5348035;26;20418;-83
2024/04/14 08:32:36;;;;;;;4.97;1.30;;;;;;;;;;5380558;26;20044;-83
2024/04/14 08:35:05;;;;;;;7.50;1.10;;;;;;;;;;5349103;26;20346;-83
2024/04/14 08:37:31;;;;;;;5.82;0.88;;;;;;;;;;5379750;26;20000;-82
2024/04/14 08:39:56;;;;;;;5.10;1.00;;;;;;;;;;5350113;26;20335;-83
2024/04/14 08:42:22;;;;;;;6.63;1.05;;;;;;;;;;5379939;26;20004;-83
2024/04/14 08:44:49;;;;;;;8.23;1.23;;;;;;;;;;5348189;26;20000;-83
2024/04/14 08:47:20;;;;;;;7.28;1.27;;;;;;;;;;5347941;26;20069;-82
2024/04/14 08:49:46;;;;;;;6.78;0.98;;;;;;;;;;5361413;26;20454;-82
2024/04/14 08:52:15;;;;;;;5.55;1.00;;;;;;;;;;5378606;26;20007;-82
2024/04/14 08:54:40;;;;;;;6.70;1.20;;;;;;;;;;5344156;26;20008;-83
2024/04/14 08:57:06;;;;;;;5.10;1.05;;;;;;;;;;5348741;26;20130;-82
2024/04/14 08:59:33;;;;;;;4.30;1.20;;;;;;;;;;5374222;26;19997;-82
2024/04/14 09:01:58;;;;;;;7.50;1.40;;;;;;;;;;5378872;26;20008;-82
2024/04/14 09:04:24;;;;;;;8.38;1.25;;;;;;;;;;5378455;26;20015;-82
2024/04/14 09:06:49;;;;;;;6.53;1.20;;;;;;;;;;5348990;26;20078;-83
2024/04/14 09:09:15;;;;;;;5.85;1.35;;;;;;;;;;5343303;26;20354;-83
2024/04/14 09:12:00;;;;;;;5.93;1.40;;;;;;;;;;5348232;26;20065;-82
2024/04/14 09:14:25;;;;;;;7.50;1.60;;;;;;;;;;5377265;26;19996;-84
2024/04/14 09:16:51;;;;;;;8.23;1.30;;;;;;;;;;5380355;26;20014;-83
2024/04/14 09:19:20;;;;;;;8.50;1.38;;;;;;;;;;5346296;26;20003;-83
2024/04/14 09:21:45;;;;;;;5.15;1.10;;;;;;;;;;5375456;26;20482;-82
2024/04/14 09:24:11;;;;;;;5.95;1.00;;;;;;;;;;5347049;26;20000;-82
2024/04/14 09:26:39;;;;;;;9.35;1.17;;;;;;;;;;5379152;26;20000;-83
2024/04/14 09:29:08;;;;;;;8.38;1.50;;;;;;;;;;5343230;26;20047;-82
2024/04/14 09:31:34;;;;;;;6.18;0.90;;;;;;;;;;5378686;26;20035;-82
2024/04/14 09:34:02;;;;;;;6.82;1.88;;;;;;;;;;5379472;26;20008;-87
2024/04/14 09:36:27;;;;;;;5.10;0.82;;;;;;;;;;5377495;26;20002;-85
2024/04/14 09:38:53;;;;;;;5.13;1.00;;;;;;;;;;5339387;26;20458;-86
2024/04/14 09:41:20;;;;;;;3.90;0.95;;;;;;;;;;5349243;26;20476;-87
2024/04/14 09:43:46;;;;;;;5.30;0.90;;;;;;;;;;5348547;26;20000;-88
2024/04/14 09:46:16;;;;;;;5.30;1.10;;;;;;;;;;5348998;26;20000;-86
2024/04/14 09:48:42;;;;;;;4.90;1.20;;;;;;;;;;5379669;26;20008;-86
2024/04/14 09:51:18;;;;;;;6.28;1.00;;;;;;;;;;5356185;26;20016;-86
2024/04/14 09:53:44;;;;;;;7.18;1.35;;;;;;;;;;5377006;26;20012;-86
2024/04/14 09:56:10;;;;;;;4.88;1.10;;;;;;;;;;5348591;26;20011;-87
2024/04/14 09:58:35;;;;;;;6.22;1.48;;;;;;;;;;5353252;26;19993;-88
2024/04/14 10:01:05;;;;;;;5.50;1.00;;;;;;;;;;5380334;26;20004;-86
2024/04/14 10:03:32;;;;;;;4.95;0.95;;;;;;;;;;5341935;26;19997;-85
2024/04/14 10:05:59;;;;;;;5.88;1.05;;;;;;;;;;5343846;26;20000;-85
2024/04/14 10:08:27;;;;;;;5.30;1.02;;;;;;;;;;5381241;26;20003;-85
2024/04/14 10:10:53;;;;;;;8.38;1.67;;;;;;;;;;5371654;26;20482;-86
2024/04/14 10:13:19;;;;;;;4.47;1.08;;;;;;;;;;5346887;26;20000;-86
2024/04/14 10:15:54;;;;;;;4.43;1.00;;;;;;;;;;5376788;26;20008;-89
2024/04/14 10:18:20;;;;;;;4.40;1.02;;;;;;;;;;5337921;26;20012;-87
2024/04/14 10:20:46;;;;;;;4.38;0.90;;;;;;;;;;5346667;26;20004;-90
2024/04/14 10:23:20;;;;;;;4.55;1.33;;;;;;;;;;5349129;26;20000;-87
2024/04/14 10:25:50;;;;;;;3.05;0.90;;;;;;;;;;5349199;26;20028;-87
2024/04/14 10:28:17;;;;;;;4.47;0.80;;;;;;;;;;5380016;26;20076;-86
2024/04/14 10:30:44;;;;;;;4.72;0.90;;;;;;;;;;5378084;26;20030;-88
2024/04/14 10:33:18;;;;;;;5.15;1.17;;;;;;;;;;5381878;26;20000;-89
2024/04/14 10:35:44;;;;;;;5.93;0.90;;;;;;;;;;5350509;26;20012;-87
2024/04/14 10:38:19;;;;;;;6.75;1.10;;;;;;;;;;5380965;26;19996;-87
2024/04/14 10:40:46;;;;;;;4.30;1.00;;;;;;;;;;5351611;26;20016;-86
2024/04/14 10:43:16;;;;;;;6.90;1.10;;;;;;;;;;5344489;26;20008;-82
2024/04/14 10:45:42;;;;;;;4.90;0.90;;;;;;;;;;5374297;26;20016;-83
2024/04/14 10:48:07;;;;;;;4.55;0.88;;;;;;;;;;5351887;26;20004;-82
2024/04/14 10:50:33;;;;;;;4.30;1.00;;;;;;;;;;5349699;26;20004;-82
2024/04/14 10:52:58;;;;;;;4.25;0.77;;;;;;;;;;5383174;26;20011;-83
2024/04/14 10:55:24;;;;;;;4.40;0.60;;;;;;;;;;5378371;26;20018;-83
2024/04/14 10:57:50;;;;;;;4.18;0.73;;;;;;;;;;5345227;26;20033;-83
2024/04/14 11:00:15;;;;;;;5.18;0.90;;;;;;;;;;5346580;26;20354;-83
2024/04/14 11:02:41;;;;;;;4.00;0.95;;;;;;;;;;5348546;26;20466;-83
2024/04/14 11:05:07;;;;;;;2.95;0.55;;;;;;;;;;5344532;26;20042;-83
2024/04/14 11:07:32;;;;;;;2.85;0.80;;;;;;;;;;5348087;26;20015;-83
2024/04/14 11:09:58;;;;;;;4.68;0.75;;;;;;;;;;5354395;26;19996;-84
2024/04/14 11:12:24;;;;;;;4.05;0.75;;;;;;;;;;5351864;26;20078;-82
2024/04/14 11:14:50;;;;;;;4.10;0.88;;;;;;;;;;5346573;26;20000;-83
2024/04/14 11:17:16;;;;;;;3.47;0.80;;;;;;;;;;5367695;26;20345;-83
2024/04/14 11:19:42;;;;;;;7.97;1.05;;;;;;;;;;5379747;26;20070;-83
2024/04/14 11:22:07;;;;;;;3.75;0.85;;;;;;;;;;5358748;26;20013;-83
2024/04/14 11:24:33;;;;;;;2.92;0.95;;;;;;;;;;5381597;26;20018;-82
2024/04/14 11:26:58;;;;;;;5.97;1.10;;;;;;;;;;5350154;26;20004;-83
2024/04/14 11:29:24;;;;;;;2.03;0.77;;;;;;;;;;5345231;26;20000;-83
2024/04/14 11:31:49;;;;;;;5.07;0.77;;;;;;;;;;5352389;26;20019;-83
2024/04/14 11:34:15;;;;;;;6.05;0.93;;;;;;;;;;5381912;26;20011;-83
2024/04/14 11:36:41;;;;;;;4.30;0.80;;;;;;;;;;5351532;26;20004;-82
2024/04/14 11:39:06;;;;;;;4.43;1.20;;;;;;;;;;5382216;26;19996;-82
2024/04/14 11:41:32;;;;;;;5.45;0.90;;;;;;;;;;5382704;26;20081;-82
2024/04/14 11:43:58;;;;;;;4.50;0.82;;;;;;;;;;5347430;26;19996;-83
2024/04/14 11:46:24;;;;;;;4.05;0.90;;;;;;;;;;5351517;26;20012;-83
2024/04/14 11:48:52;;;;;;;7.35;1.02;;;;;;;;;;5338802;26;20000;-83
2024/04/14 11:51:18;;;;;;;4.15;0.80;;;;;;;;;;5342185;26;20000;-83
2024/04/14 11:53:43;;;;;;;5.65;1.10;;;;;;;;;;5381847;26;20346;-83
2024/04/14 11:56:08;;;;;;;4.15;1.08;;;;;;;;;;5382568;26;20004;-83
2024/04/14 11:58:34;;;;;;;4.30;1.20;;;;;;;;;;5382056;26;20008;-83
2024/04/14 12:00:59;;;;;;;8.63;2.03;;;;;;;;;;5351769;26;20342;-83
2024/04/14 12:03:25;;;;;;;4.72;1.00;;;;;;;;;;5345174;26;20328;-83
2024/04/14 12:05:51;;;;;;;4.53;1.13;;;;;;;;;;5378995;26;19997;-82
2024/04/14 12:08:16;;;;;;;6.95;1.58;;;;;;;;;;5382661;26;19996;-82
2024/04/14 12:10:41;;;;;;;4.68;1.23;;;;;;;;;;5350706;26;20425;-83
2024/04/14 12:13:07;;;;;;;6.10;1.05;;;;;;;;;;5350662;26;20416;-82
2024/04/14 12:15:33;;;;;;;3.88;0.98;;;;;;;;;;5371816;26;20000;-81
2024/04/14 12:17:59;;;;;;;8.00;1.40;;;;;;;;;;5351077;26;20000;-83
2024/04/14 12:20:24;;;;;;;3.55;1.00;;;;;;;;;;5351772;26;20011;-83
2024/04/14 12:22:50;;;;;;;6.22;1.55;;;;;;;;;;5352257;26;20015;-83
2024/04/14 12:25:15;;;;;;;5.50;1.27;;;;;;;;;;5351545;26;19996;-83
2024/04/14 12:27:41;;;;;;;7.38;1.70;;;;;;;;;;5343394;26;20520;-82
2024/04/14 12:30:06;;;;;;;5.22;1.02;;;;;;;;;;5350959;26;20419;-82
2024/04/14 12:32:32;;;;;;;5.20;1.23;;;;;;;;;;5347892;26;20074;-82
2024/04/14 12:34:59;;;;;;;4.22;1.15;;;;;;;;;;5382486;26;19996;-82
2024/04/14 12:37:25;;;;;;;6.05;1.50;;;;;;;;;;5351999;26;20004;-82
2024/04/14 12:39:52;;;;;;;3.53;1.00;;;;;;;;;;5344239;26;20004;-82
2024/04/14 12:42:17;;;;;;;7.10;1.40;;;;;;;;;;5340663;26;20000;-83
2024/04/14 12:44:43;;;;;;;4.57;1.08;;;;;;;;;;5344422;26;20000;-82
2024/04/14 12:47:08;;;;;;;5.18;1.50;;;;;;;;;;5377794;26;20481;-82
2024/04/14 12:49:34;;;;;;;5.38;1.45;;;;;;;;;;5350687;26;20344;-82
2024/04/14 12:52:00;;;;;;;5.50;1.70;;;;;;;;;;5349679;26;20471;-82
2024/04/14 12:54:26;;;;;;;6.30;1.75;;;;;;;;;;5355061;26;20008;-82
2024/04/14 12:56:51;;;;;;;5.85;1.50;;;;;;;;;;5380068;26;20082;-82
2024/04/14 12:59:17;;;;;;;4.53;1.42;;;;;;;;;;5351156;26;19995;-82
2024/04/14 13:01:43;;;;;;;4.97;1.50;;;;;;;;;;5351315;26;20001;-82
2024/04/14 13:04:08;;;;;;;7.25;1.70;;;;;;;;;;5382956;26;20437;-82
2024/04/14 13:06:34;;;;;;;6.43;1.25;;;;;;;;;;5350922;26;19996;-82
2024/04/14 13:09:00;;;;;;;4.70;1.50;;;;;;;;;;5356293;26;20077;-82
2024/04/14 13:11:25;;;;;;;3.28;1.35;;;;;;;;;;5380324;26;20012;-82
2024/04/14 13:13:51;;;;;;;4.45;1.42;;;;;;;;;;5380671;26;20087;-82
2024/04/14 13:16:17;;;;;;;7.32;1.77;;;;;;;;;;5372912;26;20339;-82
2024/04/14 13:18:43;;;;;;;5.63;1.60;;;;;;;;;;5348163;26;20023;-82
2024/04/14 13:21:08;;;;;;;5.53;1.50;;;;;;;;;;5353189;26;20000;-82
2024/04/14 13:23:34;;;;;;;4.60;1.42;;;;;;;;;;5381168;26;20051;-82
2024/04/14 13:25:59;;;;;;;5.78;1.33;;;;;;;;;;5340616;26;20004;-82
2024/04/14 13:28:25;;;;;;;4.32;1.50;;;;;;;;;;5373377;26;20000;-82
2024/04/14 13:30:50;;;;;;;5.93;1.40;;;;;;;;;;5381651;26;19996;-81
2024/04/14 13:33:16;;;;;;;4.07;1.58;;;;;;;;;;5350584;26;20365;-82
2024/04/14 13:35:41;;;;;;;5.63;1.20;;;;;;;;;;5350289;26;20354;-81
2024/04/14 13:38:07;;;;;;;4.72;1.15;;;;;;;;;;5350117;26;20011;-82
2024/04/14 13:40:39;;;;;;;3.38;1.05;;;;;;;;;;5372183;26;20382;-82
2024/04/14 13:43:05;;;;;;;5.07;1.20;;;;;;;;;;5377264;26;20000;-82
2024/04/14 13:45:30;;;;;;;4.70;1.17;;;;;;;;;;5349799;26;20019;-82
2024/04/14 13:47:56;;;;;;;5.00;1.30;;;;;;;;;;5349406;26;20038;-82
2024/04/14 13:50:21;;;;;;;5.18;1.30;;;;;;;;;;5381071;26;20000;-83
2024/04/14 13:52:46;;;;;;;5.35;1.70;;;;;;;;;;5349891;26;20008;-82
2024/04/14 13:55:13;;;;;;;5.35;1.73;;;;;;;;;;5349318;26;20346;-82
2024/04/14 13:57:38;;;;;;;5.63;1.50;;;;;;;;;;5378629;26;20081;-82
2024/04/14 14:00:05;;;;;;;5.38;1.20;;;;;;;;;;5343445;26;20420;-81
2024/04/14 14:02:30;;;;;;;5.18;1.33;;;;;;;;;;5371423;26;20004;-82
2024/04/14 14:04:56;;;;;;;6.00;1.55;;;;;;;;;;5349479;26;20323;-83
2024/04/14 14:07:21;;;;;;;7.45;1.55;;;;;;;;;;5350166;26;20061;-82
2024/04/14 14:09:46;;;;;;;6.63;1.52;;;;;;;;;;5346023;26;20016;-82
2024/04/14 14:12:14;;;;;;;4.38;1.27;;;;;;;;;;5341773;26;20015;-82
2024/04/14 14:14:39;;;;;;;7.03;1.88;;;;;;;;;;5364178;26;19997;-82
2024/04/14 14:17:05;;;;;;;3.25;1.40;;;;;;;;;;5349705;26;20019;-82
2024/04/14 14:19:30;;;;;;;4.57;1.65;;;;;;;;;;5344268;26;19997;-83
2024/04/14 14:21:56;;;;;;;5.85;1.63;;;;;;;;;;5376226;26;20077;-82
2024/04/14 14:24:21;;;;;;;5.15;1.38;;;;;;;;;;5340503;26;20015;-80
2024/04/14 14:26:46;;;;;;;3.92;1.23;;;;;;;;;;5346655;26;20011;-81
2024/04/14 14:29:12;;;;;;;7.85;1.60;;;;;;;;;;5348612;26;20012;-81
2024/04/14 14:31:37;;;;;;;6.22;1.55;;;;;;;;;;5380808;26;20004;-81
2024/04/14 14:36:50;;;;;;;4.68;1.30;;;;;;;;;;5375413;26;20011;-83
2024/04/14 14:39:16;;;;;;;4.10;1.08;;;;;;;;;;5377944;26;20045;-82